createdAt,value
2023-04-30T00:00:00.861Z,100320.19
2023-04-30T00:02:49.955Z,100322.94
2023-04-30T00:05:36.882Z,100324.75
2023-04-30T00:08:17.369Z,100320.19
2023-04-30T00:11:03.966Z,100326.59
2023-04-30T00:13:44.314Z,100318.72
2023-04-30T00:16:30.845Z,100324.25
2023-04-30T00:19:11.272Z,100323.66
2023-04-30T00:21:57.770Z,100316.22
2023-04-30T00:24:44.871Z,100314.69
2023-04-30T00:27:31.794Z,100326.81
2023-04-30T00:30:12.824Z,100318.47
2023-04-30T00:32:59.830Z,100315.31
2023-04-30T00:35:46.824Z,100315.31
2023-04-30T00:38:26.919Z,100326.38
2023-04-30T00:41:13.868Z,100310.34
2023-04-30T00:43:53.930Z,100308.59
2023-04-30T00:46:40.866Z,100314.19
2023-04-30T00:49:22.070Z,100306.59
2023-04-30T00:52:08.819Z,100304.34
2023-04-30T00:54:48.988Z,100305.03
2023-04-30T00:57:35.734Z,100310.84
2023-04-30T01:00:23.740Z,100312.59
2023-04-30T01:03:10.946Z,100312.06
2023-04-30T01:05:50.890Z,100309.91
2023-04-30T01:08:38.706Z,100311.34
2023-04-30T01:11:31.771Z,100316.53
2023-04-30T01:14:44.755Z,100316.94
2023-04-30T01:17:52.985Z,100307.38
2023-04-30T01:20:40.740Z,100317.84
2023-04-30T01:23:45.773Z,100309.91
2023-04-30T01:26:52.680Z,100307.31
2023-04-30T01:29:33.901Z,100307.06
2023-04-30T01:32:20.770Z,100313.91
2023-04-30T01:35:03.091Z,100308.72
2023-04-30T01:38:00.701Z,100305.78
2023-04-30T01:40:47.751Z,100306.59
2023-04-30T01:43:52.723Z,100307.19
2023-04-30T01:46:43.798Z,100302.31
2023-04-30T01:50:11.856Z,100302.53
2023-04-30T01:53:00.717Z,100291.34
2023-04-30T01:56:06.174Z,100293.06
2023-04-30T01:58:53.707Z,100298.25
2023-04-30T02:01:34.200Z,100299.56
2023-04-30T02:04:20.717Z,100297.66
2023-04-30T02:07:01.253Z,100295.50
2023-04-30T02:09:47.698Z,100297.94
2023-04-30T02:12:30.169Z,100291.75
2023-04-30T02:15:17.694Z,100293.88
2023-04-30T02:17:58.185Z,100288.78
2023-04-30T02:20:44.656Z,100288.66
2023-04-30T02:23:24.998Z,100282.88
2023-04-30T02:26:11.597Z,100284.50
2023-04-30T02:28:58.861Z,100284.22
2023-04-30T02:31:38.696Z,100284.97
2023-04-30T02:34:25.687Z,100286.00
2023-04-30T02:37:05.730Z,100287.31
2023-04-30T02:39:52.729Z,100278.06
2023-04-30T02:42:46.687Z,100274.91
2023-04-30T02:45:33.714Z,100269.22
2023-04-30T02:48:13.687Z,100270.75
2023-04-30T02:51:00.668Z,100269.72
2023-04-30T02:53:40.739Z,100275.94
2023-04-30T02:56:27.654Z,100285.19
2023-04-30T02:59:08.759Z,100286.16
2023-04-30T03:01:55.623Z,100277.34
2023-04-30T03:04:36.717Z,100289.69
2023-04-30T03:07:23.651Z,100279.19
2023-04-30T03:10:03.698Z,100286.84
2023-04-30T03:12:50.572Z,100282.88
2023-04-30T03:15:30.983Z,100282.69
2023-04-30T03:18:17.554Z,100286.03
2023-04-30T03:20:57.768Z,100284.31
2023-04-30T03:23:44.535Z,100281.88
2023-04-30T03:26:24.650Z,100290.50
2023-04-30T03:29:11.585Z,100282.91
2023-04-30T03:31:58.602Z,100287.25
2023-04-30T03:34:38.939Z,100282.91
2023-04-30T03:37:25.528Z,100281.69
2023-04-30T03:40:20.523Z,100282.91
2023-04-30T03:43:01.027Z,100274.47
2023-04-30T03:45:47.589Z,100284.63
2023-04-30T03:48:34.510Z,100284.09
2023-04-30T03:51:14.604Z,100290.56
2023-04-30T03:54:01.495Z,100289.31
2023-04-30T03:56:42.656Z,100291.34
2023-04-30T03:59:29.550Z,100298.19
2023-04-30T04:02:09.662Z,100303.13
2023-04-30T04:04:57.504Z,100303.00
2023-04-30T04:07:37.826Z,100308.81
2023-04-30T04:10:24.556Z,100310.22
2023-04-30T04:13:11.507Z,100307.63
2023-04-30T04:15:52.070Z,100318.31
2023-04-30T04:18:38.488Z,100310.34
2023-04-30T04:21:19.256Z,100310.69
2023-04-30T04:24:06.443Z,100317.34
2023-04-30T04:26:48.124Z,100323.22
2023-04-30T04:29:35.514Z,100317.50
2023-04-30T04:32:15.932Z,100320.75
2023-04-30T04:35:03.493Z,100324.59
2023-04-30T04:37:45.177Z,100316.22
2023-04-30T04:40:31.869Z,100323.09
2023-04-30T04:43:12.371Z,100316.78
2023-04-30T04:45:59.495Z,100318.94
2023-04-30T04:48:39.835Z,100323.44
2023-04-30T04:51:26.497Z,100318.50
2023-04-30T04:54:13.415Z,100320.09
2023-04-30T04:56:53.554Z,100320.25
2023-04-30T04:59:40.474Z,100321.97
2023-04-30T05:02:21.307Z,100323.19
2023-04-30T05:05:09.436Z,100323.31
2023-04-30T05:07:58.414Z,100325.88
2023-04-30T05:10:45.505Z,100327.94
2023-04-30T05:13:25.556Z,100327.69
2023-04-30T05:16:12.465Z,100332.94
2023-04-30T05:18:52.580Z,100328.44
2023-04-30T05:21:39.510Z,100333.16
2023-04-30T05:24:19.480Z,100343.38
2023-04-30T05:27:06.393Z,100336.84
2023-04-30T05:29:46.484Z,100332.03
2023-04-30T05:32:34.431Z,100337.00
2023-04-30T05:35:15.515Z,100339.69
2023-04-30T05:38:02.390Z,100336.63
2023-04-30T05:40:42.522Z,100332.88
2023-04-30T05:43:29.451Z,100345.00
2023-04-30T05:46:09.525Z,100333.22
2023-04-30T05:48:56.417Z,100339.44
2023-04-30T05:51:36.577Z,100343.75
2023-04-30T05:54:23.332Z,100337.34
2023-04-30T05:57:04.146Z,100334.44
2023-04-30T05:59:51.491Z,100330.81
2023-04-30T06:02:38.533Z,100334.44
2023-04-30T06:05:25.336Z,100338.00
2023-04-30T06:08:12.373Z,100340.88
2023-04-30T06:10:59.338Z,100346.47
2023-04-30T06:13:39.563Z,100343.59
2023-04-30T06:16:26.443Z,100348.94
2023-04-30T06:19:13.316Z,100346.44
2023-04-30T06:22:00.396Z,100346.16
2023-04-30T06:24:40.495Z,100352.19
2023-04-30T06:27:27.341Z,100350.19
2023-04-30T06:30:07.482Z,100349.66
2023-04-30T06:32:54.405Z,100346.69
2023-04-30T06:35:34.602Z,100350.97
2023-04-30T06:38:21.306Z,100346.66
2023-04-30T06:41:15.374Z,100347.59
2023-04-30T06:44:02.336Z,100341.06
2023-04-30T06:46:42.609Z,100342.47
2023-04-30T06:49:29.364Z,100352.81
2023-04-30T06:52:09.662Z,100343.72
2023-04-30T06:54:56.353Z,100347.84
2023-04-30T06:57:37.632Z,100354.06
2023-04-30T07:00:24.323Z,100351.31
2023-04-30T07:03:11.501Z,100344.78
2023-04-30T07:06:00.360Z,100361.34
2023-04-30T07:08:41.377Z,100349.28
2023-04-30T07:11:28.306Z,100360.63
2023-04-30T07:14:15.305Z,100358.19
2023-04-30T07:17:03.308Z,100356.69
2023-04-30T07:19:43.701Z,100361.31
2023-04-30T07:22:30.273Z,100363.88
2023-04-30T07:25:10.488Z,100361.19
2023-04-30T07:40:36.351Z,100361.38
2023-04-30T07:43:17.278Z,100366.03
2023-04-30T07:46:04.108Z,100360.25
2023-04-30T07:48:51.870Z,100371.31
2023-04-30T07:51:39.958Z,100359.31
2023-04-30T07:54:20.398Z,100355.97
2023-04-30T07:57:06.888Z,100350.97
2023-04-30T07:59:53.912Z,100343.59
2023-04-30T08:02:34.182Z,100353.66
2023-04-30T08:05:20.874Z,100351.28
2023-04-30T08:08:01.059Z,100351.09
2023-04-30T08:10:48.925Z,100353.84
2023-04-30T08:13:38.286Z,100353.44
2023-04-30T08:16:18.521Z,100357.56
2023-04-30T08:19:04.869Z,100355.69
2023-04-30T08:21:45.418Z,100352.47
2023-04-30T08:24:31.916Z,100346.44
2023-04-30T08:27:12.276Z,100352.44
2023-04-30T08:29:58.912Z,100344.91
2023-04-30T08:32:39.333Z,100341.13
2023-04-30T08:35:25.908Z,100334.66
2023-04-30T08:38:19.879Z,100340.38
2023-04-30T08:41:18.860Z,100329.41
2023-04-30T08:44:00.018Z,100327.06
2023-04-30T08:46:48.879Z,100348.94
2023-04-30T08:49:32.808Z,100335.00
2023-04-30T08:52:19.820Z,100347.22
2023-04-30T08:55:03.979Z,100337.38
2023-04-30T08:57:50.850Z,100337.81
2023-04-30T09:00:31.030Z,100336.03
2023-04-30T09:03:17.942Z,100337.34
2023-04-30T09:05:58.369Z,100322.84
2023-04-30T09:08:55.900Z,100333.94
2023-04-30T09:11:36.918Z,100337.47
2023-04-30T09:14:31.860Z,100320.22
2023-04-30T09:17:13.175Z,100326.00
2023-04-30T09:19:59.827Z,100319.38
2023-04-30T09:22:46.842Z,100323.38
2023-04-30T09:25:39.548Z,100322.25
2023-04-30T09:28:31.845Z,100327.06
2023-04-30T09:31:28.812Z,100315.25
2023-04-30T09:34:15.876Z,100316.22
2023-04-30T09:36:58.072Z,100315.44
2023-04-30T09:39:44.819Z,100303.47
2023-04-30T09:42:31.835Z,100306.59
2023-04-30T09:45:18.798Z,100305.94
2023-04-30T09:48:12.848Z,100307.75
2023-04-30T09:51:04.807Z,100310.78
2023-04-30T09:53:45.430Z,100304.34
2023-04-30T09:56:36.782Z,100295.19
2023-04-30T09:59:21.511Z,100298.97
2023-04-30T10:02:08.832Z,100299.53
2023-04-30T10:05:02.774Z,100304.81
2023-04-30T10:07:53.800Z,100310.13
2023-04-30T10:10:43.818Z,100301.38
2023-04-30T10:13:26.907Z,100303.19
2023-04-30T10:16:33.799Z,100298.03
2023-04-30T10:19:37.902Z,100297.53
2023-04-30T10:22:25.805Z,100295.38
2023-04-30T10:25:07.185Z,100308.00
2023-04-30T10:27:53.736Z,100294.81
2023-04-30T10:30:33.925Z,100288.44
2023-04-30T10:33:26.843Z,100289.88
2023-04-30T10:36:18.904Z,100291.91
2023-04-30T10:39:06.799Z,100289.06
2023-04-30T10:41:50.098Z,100291.28
2023-04-30T10:44:39.753Z,100278.94
2023-04-30T10:47:26.777Z,100286.00
2023-04-30T10:50:10.956Z,100280.34
2023-04-30T10:52:57.785Z,100290.75
2023-04-30T10:56:08.775Z,100286.84
2023-04-30T10:58:55.821Z,100286.72
2023-04-30T11:02:02.970Z,100280.72
2023-04-30T11:05:15.101Z,100285.66
2023-04-30T11:08:05.733Z,100290.28
2023-04-30T11:11:10.741Z,100273.69
2023-04-30T11:14:18.722Z,100291.44
2023-04-30T11:17:06.735Z,100278.31
2023-04-30T11:19:48.918Z,100288.31
2023-04-30T11:22:42.670Z,100284.09
2023-04-30T11:25:29.738Z,100280.94
2023-04-30T11:28:10.804Z,100289.19
2023-04-30T11:30:57.783Z,100286.41
2023-04-30T11:33:46.703Z,100274.78
2023-04-30T11:36:30.931Z,100275.63
2023-04-30T11:39:17.731Z,100272.88
2023-04-30T11:41:58.087Z,100272.84
2023-04-30T11:44:45.782Z,100272.06
2023-04-30T11:47:32.761Z,100269.75
2023-04-30T11:50:21.770Z,100267.81
2023-04-30T11:53:03.322Z,100276.59
2023-04-30T11:55:49.665Z,100265.81
2023-04-30T11:58:34.330Z,100275.44
2023-04-30T12:01:21.731Z,100265.38
2023-04-30T12:04:10.901Z,100263.31
2023-04-30T12:06:57.705Z,100254.00
2023-04-30T12:10:02.783Z,100265.59
2023-04-30T12:12:43.643Z,100263.03
2023-04-30T12:15:35.674Z,100264.25
2023-04-30T12:18:26.663Z,100262.63
2023-04-30T12:21:07.273Z,100261.09
2023-04-30T12:23:53.625Z,100259.59
2023-04-30T12:26:46.665Z,100263.91
2023-04-30T12:29:26.923Z,100265.97
2023-04-30T12:32:13.691Z,100255.38
2023-04-30T12:35:00.702Z,100261.59
2023-04-30T12:37:50.258Z,100265.03
2023-04-30T12:40:41.660Z,100280.25
2023-04-30T12:43:28.706Z,100273.09
2023-04-30T12:46:08.743Z,100271.75
2023-04-30T12:48:55.695Z,100281.28
2023-04-30T12:51:35.862Z,100269.88
2023-04-30T12:54:22.659Z,100267.50
2023-04-30T12:57:22.636Z,100264.00
2023-04-30T13:00:06.222Z,100259.44
2023-04-30T13:02:52.773Z,100272.38
2023-04-30T13:05:33.272Z,100273.06
2023-04-30T13:08:19.632Z,100268.22
2023-04-30T13:11:06.780Z,100274.13
2023-04-30T13:13:46.667Z,100267.94
2023-04-30T13:16:27.472Z,100268.00
2023-04-30T13:19:14.614Z,100257.19
2023-04-30T13:21:55.414Z,100266.78
2023-04-30T13:24:42.571Z,100262.59
2023-04-30T13:27:29.739Z,100259.28
2023-04-30T13:30:09.695Z,100256.31
2023-04-30T13:32:56.655Z,100261.28
2023-04-30T13:35:36.703Z,100264.91
2023-04-30T13:41:47.553Z,100254.56
2023-04-30T13:44:28.171Z,100266.72
2023-04-30T13:47:14.558Z,100265.50
2023-04-30T13:49:55.110Z,100275.72
2023-04-30T13:52:42.572Z,100267.69
2023-04-30T13:55:23.033Z,100266.22
2023-04-30T13:58:10.544Z,100263.84
2023-04-30T14:00:51.541Z,100274.22
2023-04-30T14:03:38.641Z,100269.91
2023-04-30T14:06:19.010Z,100264.25
2023-04-30T14:09:05.523Z,100268.50
2023-04-30T14:11:45.855Z,100270.09
2023-04-30T14:14:32.520Z,100270.56
2023-04-30T14:17:19.542Z,100271.41
2023-04-30T14:19:59.801Z,100272.88
2023-04-30T14:22:46.549Z,100269.66
2023-04-30T14:25:26.833Z,100273.72
2023-04-30T14:28:13.552Z,100270.28
2023-04-30T14:30:53.641Z,100275.47
2023-04-30T14:33:40.539Z,100282.06
2023-04-30T14:36:27.485Z,100278.47
2023-04-30T14:39:08.960Z,100283.25
2023-04-30T14:41:56.472Z,100283.66
2023-04-30T14:44:44.491Z,100282.06
2023-04-30T14:47:27.362Z,100292.47
2023-04-30T14:50:14.513Z,100286.44
2023-04-30T14:52:54.596Z,100297.56
2023-04-30T14:55:41.464Z,100294.50
2023-04-30T14:58:21.739Z,100308.06
2023-04-30T15:01:08.494Z,100311.78
2023-04-30T15:03:55.532Z,100314.44
2023-04-30T15:06:36.030Z,100312.28
2023-04-30T15:09:22.568Z,100317.56
2023-04-30T15:12:02.938Z,100307.72
2023-04-30T15:14:49.461Z,100309.78
2023-04-30T15:17:30.165Z,100305.03
2023-04-30T15:20:18.411Z,100308.00
2023-04-30T15:23:05.541Z,100312.94
2023-04-30T15:25:45.755Z,100316.25
2023-04-30T15:28:32.451Z,100310.88
2023-04-30T15:31:19.399Z,100316.88
2023-04-30T15:33:59.914Z,100316.97
2023-04-30T15:36:46.404Z,100315.53
2023-04-30T15:39:41.431Z,100316.06
2023-04-30T15:42:35.399Z,100303.97
2023-04-30T15:45:16.342Z,100316.97
2023-04-30T15:48:03.444Z,100318.84
2023-04-30T15:50:43.877Z,100325.38
2023-04-30T15:53:30.441Z,100324.28
2023-04-30T15:56:17.395Z,100316.63
2023-04-30T15:59:04.418Z,100325.38
2023-04-30T16:01:51.436Z,100334.41
2023-04-30T16:04:38.387Z,100326.53
2023-04-30T16:07:18.828Z,100322.75
2023-04-30T16:10:05.428Z,100332.22
2023-04-30T16:12:52.354Z,100340.56
2023-04-30T16:15:32.574Z,100340.34
2023-04-30T16:18:19.405Z,100341.44
2023-04-30T16:21:07.363Z,100344.81
2023-04-30T16:23:55.441Z,100351.19
2023-04-30T16:26:36.219Z,100350.81
2023-04-30T16:29:24.400Z,100351.88
2023-04-30T16:32:11.534Z,100352.56
2023-04-30T16:34:52.314Z,100354.09
2023-04-30T16:37:39.389Z,100354.31
2023-04-30T16:40:19.873Z,100361.22
2023-04-30T16:43:09.420Z,100360.41
2023-04-30T16:45:50.097Z,100371.16
2023-04-30T16:48:37.345Z,100363.03
2023-04-30T16:51:17.748Z,100374.84
2023-04-30T16:54:04.340Z,100365.94
2023-04-30T16:56:44.723Z,100364.19
2023-04-30T16:59:31.342Z,100371.69
2023-04-30T17:02:18.414Z,100378.97
2023-04-30T17:04:58.437Z,100369.72
2023-04-30T17:07:45.335Z,100385.78
2023-04-30T17:10:33.398Z,100384.84
2023-04-30T17:13:13.930Z,100382.28
2023-04-30T17:16:03.390Z,100385.06
2023-04-30T17:18:50.336Z,100384.69
2023-04-30T17:21:30.462Z,100386.00
2023-04-30T17:24:18.338Z,100384.69
2023-04-30T17:27:06.290Z,100386.41
2023-04-30T17:29:53.419Z,100390.19
2023-04-30T17:32:40.322Z,100383.06
2023-04-30T17:35:21.167Z,100389.28
2023-04-30T17:38:08.377Z,100397.56
2023-04-30T17:40:55.287Z,100395.81
2023-04-30T17:43:35.576Z,100392.81
2023-04-30T17:46:22.398Z,100394.69
2023-04-30T17:49:03.693Z,100393.22
2023-04-30T17:51:50.262Z,100401.72
2023-04-30T17:54:31.005Z,100414.31
2023-04-30T17:57:18.292Z,100408.31
2023-04-30T17:59:59.091Z,100415.13
2023-04-30T18:02:53.385Z,100420.22
2023-04-30T18:05:41.277Z,100420.19
2023-04-30T18:08:21.995Z,100427.59
2023-04-30T18:11:12.207Z,100429.53
2023-04-30T18:14:02.248Z,100430.34
2023-04-30T18:16:42.809Z,100435.53
2023-04-30T18:19:29.204Z,100430.34
2023-04-30T18:22:16.193Z,100438.53
2023-04-30T18:25:04.096Z,100437.53
2023-04-30T18:27:44.284Z,100441.06
2023-04-30T18:30:24.633Z,100440.94
2023-04-30T18:33:05.347Z,100441.44
2023-04-30T18:35:56.294Z,100436.34
2023-04-30T18:38:45.186Z,100452.88
2023-04-30T18:41:40.169Z,100454.28
2023-04-30T18:44:30.557Z,100452.44
2023-04-30T18:47:18.162Z,100460.53
2023-04-30T18:49:59.261Z,100456.28
2023-04-30T18:52:46.205Z,100453.59
2023-04-30T18:55:33.263Z,100457.69
2023-04-30T18:58:13.274Z,100458.19
2023-04-30T19:01:04.236Z,100461.75
2023-04-30T19:03:44.586Z,100451.00
2023-04-30T19:06:31.220Z,100461.28
2023-04-30T19:09:18.219Z,100466.63
2023-04-30T19:12:05.219Z,100455.63
2023-04-30T19:14:45.869Z,100466.69
2023-04-30T19:17:32.214Z,100471.50
2023-04-30T19:20:12.257Z,100467.25
2023-04-30T19:22:59.162Z,100468.72
2023-04-30T19:41:47.593Z,100461.03
2023-04-30T19:44:29.458Z,100465.94
2023-04-30T19:47:16.530Z,100464.44
2023-04-30T19:50:04.563Z,100456.66
2023-04-30T19:52:44.702Z,100463.53
2023-04-30T19:55:31.690Z,100456.56
2023-04-30T19:58:11.754Z,100462.91
2023-04-30T20:01:00.598Z,100466.31
2023-04-30T20:03:41.808Z,100465.69
2023-04-30T20:06:28.599Z,100466.19
2023-04-30T20:09:08.634Z,100467.25
2023-04-30T20:11:57.503Z,100463.53
2023-04-30T20:14:37.656Z,100469.19
2023-04-30T20:17:24.587Z,100468.19
2023-04-30T20:20:12.503Z,100474.66
2023-04-30T20:23:01.581Z,100473.66
2023-04-30T20:25:45.441Z,100474.13
2023-04-30T20:28:33.330Z,100477.63
2023-04-30T20:31:21.578Z,100482.97
2023-04-30T20:34:01.953Z,100480.59
2023-04-30T20:36:48.524Z,100468.59
2023-04-30T20:39:42.488Z,100474.78
2023-04-30T20:42:23.307Z,100471.28
2023-04-30T20:45:10.527Z,100484.94
2023-04-30T20:47:50.888Z,100485.63
2023-04-30T20:50:37.470Z,100496.78
2023-04-30T20:53:18.799Z,100492.81
2023-04-30T20:56:06.630Z,100497.53
2023-04-30T20:58:53.454Z,100499.06
2023-04-30T21:01:40.694Z,100498.59
2023-04-30T21:04:20.813Z,100501.38
2023-04-30T21:07:08.468Z,100498.88
2023-04-30T21:09:55.620Z,100502.16
2023-04-30T21:12:35.555Z,100492.53
2023-04-30T21:15:22.430Z,100496.16
2023-04-30T21:18:02.932Z,100498.47
2023-04-30T21:20:49.441Z,100496.00
2023-04-30T21:23:30.058Z,100493.78
2023-04-30T21:26:17.417Z,100498.38
2023-04-30T21:28:57.552Z,100499.41
2023-04-30T21:31:44.410Z,100501.50
2023-04-30T21:34:31.431Z,100508.66
2023-04-30T21:37:11.837Z,100502.34
2023-04-30T21:39:58.422Z,100505.28
2023-04-30T21:42:39.875Z,100512.63
2023-04-30T21:45:26.370Z,100515.38
2023-04-30T21:48:13.421Z,100505.94
2023-04-30T21:50:53.501Z,100505.16
2023-04-30T21:53:40.407Z,100500.25
2023-04-30T21:56:27.380Z,100503.22
2023-04-30T21:59:14.354Z,100506.44
2023-04-30T22:01:54.465Z,100511.50
2023-04-30T22:04:41.353Z,100511.81
2023-04-30T22:07:22.334Z,100517.31
2023-04-30T22:10:12.405Z,100516.66
2023-04-30T22:12:52.556Z,100509.19
2023-04-30T22:18:34.314Z,100506.78
2023-04-30T22:21:21.524Z,100508.56
2023-04-30T22:24:01.369Z,100514.25
2023-04-30T22:26:41.709Z,100519.78
2023-04-30T22:29:28.375Z,100519.28
2023-04-30T22:32:16.315Z,100514.25
2023-04-30T22:34:56.719Z,100506.44
2023-04-30T22:37:46.300Z,100509.88
2023-04-30T22:40:33.359Z,100500.78
2023-04-30T22:43:14.126Z,100501.25
2023-04-30T22:46:01.278Z,100504.00
2023-04-30T22:48:42.605Z,100504.81
2023-04-30T22:51:29.279Z,100508.22
2023-04-30T22:54:10.054Z,100508.56
2023-04-30T22:56:57.280Z,100504.50
2023-04-30T22:59:37.952Z,100493.47
2023-04-30T23:02:24.344Z,100506.13
2023-04-30T23:05:12.937Z,100498.31
2023-04-30T23:07:56.319Z,100506.44
2023-04-30T23:10:43.302Z,100519.28
2023-04-30T23:13:23.642Z,100511.13
2023-04-30T23:16:12.362Z,100508.22
2023-04-30T23:18:52.387Z,100509.66
2023-04-30T23:21:40.311Z,100509.34
2023-04-30T23:24:20.336Z,100514.34
2023-04-30T23:27:07.223Z,100507.53
2023-04-30T23:29:54.354Z,100503.00
2023-04-30T23:32:41.333Z,100506.13
2023-04-30T23:35:21.376Z,100509.06
2023-04-30T23:38:08.261Z,100513.91
2023-04-30T23:40:56.290Z,100513.91
2023-04-30T23:43:36.814Z,100511.34
2023-04-30T23:46:23.304Z,100513.44
2023-04-30T23:49:03.867Z,100505.81
2023-04-30T23:51:57.203Z,100504.13
2023-04-30T23:54:37.561Z,100509.97
2023-04-30T23:57:24.274Z,100506.22
